Buoy 46612

sailwx.info

Track history (hours):
 
Tides and Currents Weather Stations Pressure Air Temp Water Temp Dewpoint Dewpoint Depression Visibility Wind Speed Wind Dir Waves Ship Positions

Drifting buoy 46612

Last reported at 2016-Jun-29 05:00 UTC. Time now 2016-Jun-29 09:14 UTC.
Position N 32°58' W 130°10'.

Water temperature 18.3 ° C

Date/timePositionNaut miles runAvg speedWind from/ knotsBaromVisibWave heightAir tempDewpointWater temp
2016-Jun-29 05:00N 32°58' W 130°10'0 0.1 18.3
2016-Jun-29 03:00N 32°58' W 130°10'0 0.1 18.3
2016-Jun-29 02:00N 32°58' W 130°10'0 0.2 18.4
2016-Jun-29 01:00N 32°58' W 130°10'1 0.6 18.4
2016-Jun-29 00:00N 32°58' W 130°09'0 0.1 18.4
2016-Jun-28 23:00N 32°58' W 130°09'1 0.7 18.4
2016-Jun-28 22:00N 32°58' W 130°08'0 0.0 18.4
2016-Jun-28 21:00N 32°58' W 130°08'1 0.2 18.3
2016-Jun-28 15:00N 32°59' W 130°07'1 0.7 18.4
2016-Jun-28 14:00N 32°60' W 130°07'1 0.1 18.4
2016-Jun-28 07:00N 33°00' W 130°07'0 0.0 18.4
2016-Jun-28 06:00N 33°00' W 130°07'1 0.6 18.4
2016-Jun-28 05:00N 33°00' W 130°07'0 0.0 18.4
2016-Jun-28 04:00N 33°00' W 130°07'0 0.1 18.4
2016-Jun-28 03:00N 33°00' W 130°07'0 0.1 18.4
2016-Jun-28 02:00N 33°00' W 130°07'1 0.5 18.4
2016-Jun-28 01:00N 32°60' W 130°07'0 0.0 18.4
2016-Jun-28 00:00N 32°60' W 130°07'1 1.3 18.4
2016-Jun-27 23:00N 33°00' W 130°05'2 0.4 18.4
2016-Jun-27 19:00N 33°01' W 130°03'2 0.6 18.3
2016-Jun-27 16:00N 33°03' W 130°04'1 0.7 18.2
2016-Jun-27 15:00N 33°03' W 130°04'0 0.0 18.2
2016-Jun-27 14:00N 33°03' W 130°04'1 0.6 18.2
2016-Jun-27 13:00N 33°03' W 130°05'1 0.2 18.2
2016-Jun-27 07:00N 33°02' W 130°05'0 0.0 18.2
2016-Jun-27 06:00N 33°02' W 130°05'1 0.7 18.2
2016-Jun-27 05:00N 33°02' W 130°04'0 0.0 18.3
2016-Jun-27 04:00N 33°02' W 130°04'0 0.0 18.3
2016-Jun-27 03:00N 33°02' W 130°04'0 0.5 18.3
2016-Jun-27 02:00N 33°03' W 130°04'0 0.0 18.3
2016-Jun-27 01:00N 33°03' W 130°04'0 0.3 18.3
2016-Jun-27 00:00N 33°03' W 130°04'0 0.0 18.4
2016-Jun-26 22:00N 33°03' W 130°04'1 0.3 18.3
2016-Jun-26 19:00N 33°04' W 130°03'1 0.3 18.2
2016-Jun-26 17:00N 33°04' W 130°03'0 0.0 18.1
2016-Jun-26 16:00N 33°04' W 130°03'1 1.0 18.1
2016-Jun-26 15:00N 33°05' W 130°04'0 0.1 18.1
2016-Jun-26 14:00N 33°05' W 130°04'0 0.2 18.0
2016-Jun-26 13:00N 33°05' W 130°04'0 0.3 18.0
2016-Jun-26 12:00N 33°05' W 130°04'2 0.3 18.0
2016-Jun-26 06:00N 33°05' W 130°02'0 0.0 18.1
2016-Jun-26 05:00N 33°05' W 130°02'1 0.5 18.1
2016-Jun-26 04:00N 33°06' W 130°02'0 0.1 18.1
2016-Jun-26 03:00N 33°06' W 130°02'0 0.0 18.1
2016-Jun-26 02:00N 33°06' W 130°02'1 1.3 18.1
2016-Jun-26 01:00N 33°07' W 130°02'0 0.0 18.1
2016-Jun-26 00:00N 33°07' W 130°02'2 0.9 18.1
2016-Jun-25 22:00N 33°08' W 130°00'0 0.0 18.1
2016-Jun-25 20:00N 33°08' W 130°00'0 0.0 18.0
2016-Jun-25 17:00N 33°08' W 130°00'0 0.0 18.0
2016-Jun-25 16:00N 33°08' W 130°00'0 0.4 18.0
2016-Jun-25 15:00N 33°08' W 130°00'0 0.1 18.0
2016-Jun-25 14:00N 33°09' W 130°00'0 0.4 18.0
2016-Jun-25 13:00N 33°09' W 130°01'1 0.8 18.0
2016-Jun-25 12:00N 33°10' W 130°01'3 0.5 18.0
2016-Jun-25 06:00N 33°09' W 129°57'1 0.3 18.0
2016-Jun-25 03:00N 33°10' W 129°57'1 0.9 18.0
2016-Jun-25 02:00N 33°10' W 129°56'0 0.0 18.0
2016-Jun-25 01:00N 33°10' W 129°56'1 0.7 18.1
2016-Jun-25 00:00N 33°11' W 129°56'0 0.2 18.1
2016-Jun-24 22:00N 33°11' W 129°57'0 0.0 18.0
2016-Jun-24 21:00N 33°11' W 129°57'2 0.4 18.0
2016-Jun-24 17:00N 33°10' W 129°55'1 0.2 17.9
2016-Jun-24 14:00N 33°10' W 129°55'0 0.0 17.9
2016-Jun-24 13:00N 33°10' W 129°55'1 0.2 17.9
2016-Jun-24 06:00N 33°09' W 129°54'0 0.4 17.9
2016-Jun-24 05:00N 33°09' W 129°54'0 0.0 17.9
2016-Jun-24 04:00N 33°09' W 129°54'0 0.3 18.0
2016-Jun-24 03:00N 33°10' W 129°54'0 0.1 18.0
2016-Jun-24 02:00N 33°10' W 129°54'0 0.1 18.0
2016-Jun-24 01:00N 33°10' W 129°54'1 0.4 18.0
2016-Jun-23 23:00N 33°09' W 129°55'1 0.6 18.0
2016-Jun-23 21:00N 33°08' W 129°54'1 0.2 17.9
2016-Jun-23 16:00N 33°08' W 129°53'0 0.0 17.7
2016-Jun-23 15:00N 33°08' W 129°53'1 0.8 17.7
2016-Jun-23 14:00N 33°09' W 129°53'0 0.0 17.7
2016-Jun-23 13:00N 33°09' W 129°53'0 0.3 17.7
2016-Jun-23 12:00N 33°09' W 129°53'0 0.0 17.7
2016-Jun-23 11:00N 33°09' W 129°53'2 1.1 17.7
2016-Jun-23 09:00N 33°08' W 129°56'0 0.0 17.8
2016-Jun-23 07:00N 33°08' W 129°56'0 0.0 17.8
2016-Jun-23 06:00N 33°08' W 129°56'0 0.0 17.8
2016-Jun-23 05:00N 33°08' W 129°56'1 0.7 17.8
2016-Jun-23 04:00N 33°09' W 129°55'1 0.3 17.8
2016-Jun-23 02:00N 33°08' W 129°56'0 0.0 17.8
2016-Jun-23 01:00N 33°08' W 129°56'1 0.6 17.9
2016-Jun-23 00:00N 33°09' W 129°56'0 0.0 17.9
2016-Jun-22 23:00N 33°09' W 129°56'1 0.9 17.9
2016-Jun-22 22:00N 33°09' W 129°57'1 1.1 17.9
2016-Jun-22 21:00N 33°08' W 129°57'1 0.4 17.9
2016-Jun-22 18:00N 33°07' W 129°56'0 0.2 17.9
2016-Jun-22 16:00N 33°07' W 129°56'0 0.1 17.9
2016-Jun-22 13:00N 33°07' W 129°56'1 1.1 18.0
2016-Jun-22 12:00N 33°08' W 129°56'1 1.0 18.0
2016-Jun-22 11:00N 33°09' W 129°57'0 0.0 18.0
2016-Jun-22 09:00N 33°09' W 129°57'2 0.4 18.0
2016-Jun-22 05:00N 33°09' W 129°59'0 0.1 18.1
2016-Jun-22 04:00N 33°08' W 129°59'0 0.3 18.1
2016-Jun-22 03:00N 33°08' W 129°59'1 0.7 18.1
2016-Jun-22 02:00N 33°08' W 129°59'0 0.1 18.1
2016-Jun-22 01:00N 33°08' W 129°59'0 0.2 18.1
2016-Jun-22 00:00N 33°08' W 129°59'0 0.0 18.1
2016-Jun-21 23:00N 33°08' W 129°59'1 0.3 18.1
2016-Jun-21 21:00N 33°08' W 129°59'0 0.0 18.1
2016-Jun-21 16:00N 33°08' W 129°59'0 0.0 18.0
2016-Jun-21 15:00N 33°08' W 129°59'0 0.2 18.0
2016-Jun-21 14:00N 33°08' W 129°59'0 0.0 18.0
2016-Jun-21 13:00N 33°08' W 129°59'1 0.4 18.0
2016-Jun-21 11:00N 33°09' W 129°60'1 0.4 18.0
2016-Jun-21 09:00N 33°08' W 130°00'1 0.2 18.0
2016-Jun-21 06:00N 33°08' W 130°01'1 0.6 18.0
2016-Jun-21 05:00N 33°08' W 130°00'1 0.3 18.0
2016-Jun-21 03:00N 33°08' W 129°60'0 0.5 17.9
2016-Jun-21 02:00N 33°07' W 129°60'0 0.0 17.9
2016-Jun-21 01:00N 33°07' W 129°60'0 0.0 17.9
2016-Jun-21 00:00N 33°07' W 129°60'1 1.0 17.9
2016-Jun-20 23:00N 33°08' W 130°01'0 0.0 17.9
2016-Jun-20 21:00N 33°08' W 130°01'1 0.3 17.8
2016-Jun-20 19:00N 33°07' W 130°01'0 0.2 17.7
2016-Jun-20 18:00N 33°07' W 130°01'1 0.6 17.7
2016-Jun-20 17:00N 33°07' W 130°02'1 0.3 17.7
2016-Jun-20 15:00N 33°07' W 130°01'0 0.2 17.7
2016-Jun-20 14:00N 33°07' W 130°01'0 0.4 17.7
2016-Jun-20 13:00N 33°07' W 130°01'0 0.0 17.7
2016-Jun-20 12:00N 33°07' W 130°01'1 0.9 17.7
2016-Jun-20 11:00N 33°08' W 130°01'1 0.3 17.7
2016-Jun-20 06:00N 33°08' W 130°03'1 0.6 17.8
2016-Jun-20 05:00N 33°08' W 130°03'0 0.0 17.8
2016-Jun-20 04:00N 33°08' W 130°03'1 0.2 17.8
2016-Jun-19 23:00N 33°08' W 130°04'0 0.1 18.0
2016-Jun-19 22:00N 33°08' W 130°04'0 0.0 17.9
2016-Jun-19 21:00N 33°08' W 130°04'1 0.7 17.9
2016-Jun-19 19:00N 33°09' W 130°06'1 0.9 17.7
2016-Jun-19 18:00N 33°08' W 130°07'0 0.0 17.7
2016-Jun-19 17:00N 33°08' W 130°07'1 0.2 17.7
2016-Jun-19 14:00N 33°09' W 130°07'0 0.4 17.6
2016-Jun-19 13:00N 33°09' W 130°08'0 0.2 17.6
2016-Jun-19 12:00N 33°09' W 130°07'2 0.5 17.6
2016-Jun-19 07:00N 33°10' W 130°10'1 0.6 17.7
2016-Jun-19 06:00N 33°09' W 130°11'1 1.3 17.7
2016-Jun-19 05:00N 33°09' W 130°12'   17.8
Track history (hours):
 
Tides and Currents Weather Stations Pressure Air Temp Water Temp Dewpoint Dewpoint Depression Visibility Wind Speed Wind Dir Waves Ship Positions

Drifting buoy 46612

Last reported at 2016-Jun-29 05:00 UTC. Time now 2016-Jun-29 09:14 UTC.
Position N 32°58' W 130°10'.

Water temperature 18.3 ° C

Date/timePositionNaut miles runAvg speedWind from/ knotsBaromVisibWave heightAir tempDewpointWater temp
2016-Jun-29 05:00N 32°58' W 130°10'0 0.1 18.3
2016-Jun-29 03:00N 32°58' W 130°10'0 0.1 18.3
2016-Jun-29 02:00N 32°58' W 130°10'0 0.2 18.4
2016-Jun-29 01:00N 32°58' W 130°10'1 0.6 18.4
2016-Jun-29 00:00N 32°58' W 130°09'0 0.1 18.4
2016-Jun-28 23:00N 32°58' W 130°09'1 0.7 18.4
2016-Jun-28 22:00N 32°58' W 130°08'0 0.0 18.4
2016-Jun-28 21:00N 32°58' W 130°08'1 0.2 18.3
2016-Jun-28 15:00N 32°59' W 130°07'1 0.7 18.4
2016-Jun-28 14:00N 32°60' W 130°07'1 0.1 18.4
2016-Jun-28 07:00N 33°00' W 130°07'0 0.0 18.4
2016-Jun-28 06:00N 33°00' W 130°07'1 0.6 18.4
2016-Jun-28 05:00N 33°00' W 130°07'0 0.0 18.4
2016-Jun-28 04:00N 33°00' W 130°07'0 0.1 18.4
2016-Jun-28 03:00N 33°00' W 130°07'0 0.1 18.4
2016-Jun-28 02:00N 33°00' W 130°07'1 0.5 18.4
2016-Jun-28 01:00N 32°60' W 130°07'0 0.0 18.4
2016-Jun-28 00:00N 32°60' W 130°07'1 1.3 18.4
2016-Jun-27 23:00N 33°00' W 130°05'2 0.4 18.4
2016-Jun-27 19:00N 33°01' W 130°03'2 0.6 18.3
2016-Jun-27 16:00N 33°03' W 130°04'1 0.7 18.2
2016-Jun-27 15:00N 33°03' W 130°04'0 0.0 18.2
2016-Jun-27 14:00N 33°03' W 130°04'1 0.6 18.2
2016-Jun-27 13:00N 33°03' W 130°05'1 0.2 18.2
2016-Jun-27 07:00N 33°02' W 130°05'0 0.0 18.2
2016-Jun-27 06:00N 33°02' W 130°05'1 0.7 18.2
2016-Jun-27 05:00N 33°02' W 130°04'0 0.0 18.3
2016-Jun-27 04:00N 33°02' W 130°04'0 0.0 18.3
2016-Jun-27 03:00N 33°02' W 130°04'0 0.5 18.3
2016-Jun-27 02:00N 33°03' W 130°04'0 0.0 18.3
2016-Jun-27 01:00N 33°03' W 130°04'0 0.3 18.3
2016-Jun-27 00:00N 33°03' W 130°04'0 0.0 18.4
2016-Jun-26 22:00N 33°03' W 130°04'1 0.3 18.3
2016-Jun-26 19:00N 33°04' W 130°03'1 0.3 18.2
2016-Jun-26 17:00N 33°04' W 130°03'0 0.0 18.1
2016-Jun-26 16:00N 33°04' W 130°03'1 1.0 18.1
2016-Jun-26 15:00N 33°05' W 130°04'0 0.1 18.1
2016-Jun-26 14:00N 33°05' W 130°04'0 0.2 18.0
2016-Jun-26 13:00N 33°05' W 130°04'0 0.3 18.0
2016-Jun-26 12:00N 33°05' W 130°04'2 0.3 18.0
2016-Jun-26 06:00N 33°05' W 130°02'0 0.0 18.1
2016-Jun-26 05:00N 33°05' W 130°02'1 0.5 18.1
2016-Jun-26 04:00N 33°06' W 130°02'0 0.1 18.1
2016-Jun-26 03:00N 33°06' W 130°02'0 0.0 18.1
2016-Jun-26 02:00N 33°06' W 130°02'1 1.3 18.1
2016-Jun-26 01:00N 33°07' W 130°02'0 0.0 18.1
2016-Jun-26 00:00N 33°07' W 130°02'2 0.9 18.1
2016-Jun-25 22:00N 33°08' W 130°00'0 0.0 18.1
2016-Jun-25 20:00N 33°08' W 130°00'0 0.0 18.0
2016-Jun-25 17:00N 33°08' W 130°00'0 0.0 18.0
2016-Jun-25 16:00N 33°08' W 130°00'0 0.4 18.0
2016-Jun-25 15:00N 33°08' W 130°00'0 0.1 18.0
2016-Jun-25 14:00N 33°09' W 130°00'0 0.4 18.0
2016-Jun-25 13:00N 33°09' W 130°01'1 0.8 18.0
2016-Jun-25 12:00N 33°10' W 130°01'3 0.5 18.0
2016-Jun-25 06:00N 33°09' W 129°57'1 0.3 18.0
2016-Jun-25 03:00N 33°10' W 129°57'1 0.9 18.0
2016-Jun-25 02:00N 33°10' W 129°56'0 0.0 18.0
2016-Jun-25 01:00N 33°10' W 129°56'1 0.7 18.1
2016-Jun-25 00:00N 33°11' W 129°56'0 0.2 18.1
2016-Jun-24 22:00N 33°11' W 129°57'0 0.0 18.0
2016-Jun-24 21:00N 33°11' W 129°57'2 0.4 18.0
2016-Jun-24 17:00N 33°10' W 129°55'1 0.2 17.9
2016-Jun-24 14:00N 33°10' W 129°55'0 0.0 17.9
2016-Jun-24 13:00N 33°10' W 129°55'1 0.2 17.9
2016-Jun-24 06:00N 33°09' W 129°54'0 0.4 17.9
2016-Jun-24 05:00N 33°09' W 129°54'0 0.0 17.9
2016-Jun-24 04:00N 33°09' W 129°54'0 0.3 18.0
2016-Jun-24 03:00N 33°10' W 129°54'0 0.1 18.0
2016-Jun-24 02:00N 33°10' W 129°54'0 0.1 18.0
2016-Jun-24 01:00N 33°10' W 129°54'1 0.4 18.0
2016-Jun-23 23:00N 33°09' W 129°55'1 0.6 18.0
2016-Jun-23 21:00N 33°08' W 129°54'1 0.2 17.9
2016-Jun-23 16:00N 33°08' W 129°53'0 0.0 17.7
2016-Jun-23 15:00N 33°08' W 129°53'1 0.8 17.7
2016-Jun-23 14:00N 33°09' W 129°53'0 0.0 17.7
2016-Jun-23 13:00N 33°09' W 129°53'0 0.3 17.7
2016-Jun-23 12:00N 33°09' W 129°53'0 0.0 17.7
2016-Jun-23 11:00N 33°09' W 129°53'2 1.1 17.7
2016-Jun-23 09:00N 33°08' W 129°56'0 0.0 17.8
2016-Jun-23 07:00N 33°08' W 129°56'0 0.0 17.8
2016-Jun-23 06:00N 33°08' W 129°56'0 0.0 17.8
2016-Jun-23 05:00N 33°08' W 129°56'1 0.7 17.8
2016-Jun-23 04:00N 33°09' W 129°55'1 0.3 17.8
2016-Jun-23 02:00N 33°08' W 129°56'0 0.0 17.8
2016-Jun-23 01:00N 33°08' W 129°56'1 0.6 17.9
2016-Jun-23 00:00N 33°09' W 129°56'0 0.0 17.9
2016-Jun-22 23:00N 33°09' W 129°56'1 0.9 17.9
2016-Jun-22 22:00N 33°09' W 129°57'1 1.1 17.9
2016-Jun-22 21:00N 33°08' W 129°57'1 0.4 17.9
2016-Jun-22 18:00N 33°07' W 129°56'0 0.2 17.9
2016-Jun-22 16:00N 33°07' W 129°56'0 0.1 17.9
2016-Jun-22 13:00N 33°07' W 129°56'1 1.1 18.0
2016-Jun-22 12:00N 33°08' W 129°56'1 1.0 18.0
2016-Jun-22 11:00N 33°09' W 129°57'0 0.0 18.0
2016-Jun-22 09:00N 33°09' W 129°57'2 0.4 18.0
2016-Jun-22 05:00N 33°09' W 129°59'0 0.1 18.1
2016-Jun-22 04:00N 33°08' W 129°59'0 0.3 18.1
2016-Jun-22 03:00N 33°08' W 129°59'1 0.7 18.1
2016-Jun-22 02:00N 33°08' W 129°59'0 0.1 18.1
2016-Jun-22 01:00N 33°08' W 129°59'0 0.2 18.1
2016-Jun-22 00:00N 33°08' W 129°59'0 0.0 18.1
2016-Jun-21 23:00N 33°08' W 129°59'1 0.3 18.1
2016-Jun-21 21:00N 33°08' W 129°59'0 0.0 18.1
2016-Jun-21 16:00N 33°08' W 129°59'0 0.0 18.0
2016-Jun-21 15:00N 33°08' W 129°59'0 0.2 18.0
2016-Jun-21 14:00N 33°08' W 129°59'0 0.0 18.0
2016-Jun-21 13:00N 33°08' W 129°59'1 0.4 18.0
2016-Jun-21 11:00N 33°09' W 129°60'1 0.4 18.0
2016-Jun-21 09:00N 33°08' W 130°00'1 0.2 18.0
2016-Jun-21 06:00N 33°08' W 130°01'1 0.6 18.0
2016-Jun-21 05:00N 33°08' W 130°00'1 0.3 18.0
2016-Jun-21 03:00N 33°08' W 129°60'0 0.5 17.9
2016-Jun-21 02:00N 33°07' W 129°60'0 0.0 17.9
2016-Jun-21 01:00N 33°07' W 129°60'0 0.0 17.9
2016-Jun-21 00:00N 33°07' W 129°60'1 1.0 17.9
2016-Jun-20 23:00N 33°08' W 130°01'0 0.0 17.9
2016-Jun-20 21:00N 33°08' W 130°01'1 0.3 17.8
2016-Jun-20 19:00N 33°07' W 130°01'0 0.2 17.7
2016-Jun-20 18:00N 33°07' W 130°01'1 0.6 17.7
2016-Jun-20 17:00N 33°07' W 130°02'1 0.3 17.7
2016-Jun-20 15:00N 33°07' W 130°01'0 0.2 17.7
2016-Jun-20 14:00N 33°07' W 130°01'0 0.4 17.7
2016-Jun-20 13:00N 33°07' W 130°01'0 0.0 17.7
2016-Jun-20 12:00N 33°07' W 130°01'1 0.9 17.7
2016-Jun-20 11:00N 33°08' W 130°01'1 0.3 17.7
2016-Jun-20 06:00N 33°08' W 130°03'1 0.6 17.8
2016-Jun-20 05:00N 33°08' W 130°03'0 0.0 17.8
2016-Jun-20 04:00N 33°08' W 130°03'1 0.2 17.8
2016-Jun-19 23:00N 33°08' W 130°04'0 0.1 18.0
2016-Jun-19 22:00N 33°08' W 130°04'0 0.0 17.9
2016-Jun-19 21:00N 33°08' W 130°04'1 0.7 17.9
2016-Jun-19 19:00N 33°09' W 130°06'1 0.9 17.7
2016-Jun-19 18:00N 33°08' W 130°07'0 0.0 17.7
2016-Jun-19 17:00N 33°08' W 130°07'1 0.2 17.7
2016-Jun-19 14:00N 33°09' W 130°07'0 0.4 17.6
2016-Jun-19 13:00N 33°09' W 130°08'0 0.2 17.6
2016-Jun-19 12:00N 33°09' W 130°07'2 0.5 17.6
2016-Jun-19 07:00N 33°10' W 130°10'1 0.6 17.7
2016-Jun-19 06:00N 33°09' W 130°11'1 1.3 17.7
2016-Jun-19 05:00N 33°09' W 130°12'   17.8

Dump ship's entire track history